Time;durP1;ratioP1;P1;durP2;ratioP2;P2;SDS_P1;SDS_P2;PMS_P1;PMS_P2;Temp;Humidity;BMP_temperature;BMP_pressure;BME280_temperature;BME280_humidity;BME280_pressure;Samples;Min_cycle;Max_cycle;Signal;HPM_P1;HPM_P2
2021/01/22 00:01:40;0.00;0.00;0.62;0.00;0.00;0.62;;;;;13.90;1.00;;;;;;2261250;61;946;-90
2021/01/22 00:04:07;0.00;0.00;0.62;0.00;0.00;0.62;;;;;13.90;1.00;;;;;;2268431;61;1912;-88
2021/01/22 00:06:34;0.00;0.00;0.62;0.00;0.00;0.62;;;;;13.40;1.00;;;;;;2258528;61;1006;-88
2021/01/22 00:09:00;28564.00;0.10;50.10;0.00;0.00;0.62;;;;;13.10;1.00;;;;;;2268586;61;1021;-87
2021/01/22 00:11:28;14433.00;0.05;25.63;0.00;0.00;0.62;;;;;12.90;1.00;;;;;;2268448;61;972;-87
2021/01/22 00:13:54;0.00;0.00;0.62;0.00;0.00;0.62;;;;;12.60;1.00;;;;;;2262370;61;1425;-87
2021/01/22 00:16:21;13390.00;0.04;23.82;0.00;0.00;0.62;;;;;12.50;1.00;;;;;;2257866;61;957;-87
2021/01/22 00:18:47;11061.00;0.04;19.79;0.00;0.00;0.62;;;;;12.80;1.00;;;;;;2261080;61;968;-88
2021/01/22 00:21:14;169164.00;0.56;292.83;0.00;0.00;0.62;;;;;12.90;1.00;;;;;;2264027;61;1020;-87
2021/01/22 00:23:40;49068.00;0.16;85.57;0.00;0.00;0.62;;;;;12.80;1.00;;;;;;2260434;61;1919;-88
2021/01/22 00:26:07;35142.00;0.12;61.48;0.00;0.00;0.62;;;;;12.40;1.00;;;;;;2260339;61;954;-89
2021/01/22 00:28:35;54543.00;0.18;95.04;0.00;0.00;0.62;;;;;12.60;1.00;;;;;;2253806;61;989;-87
2021/01/22 00:31:01;61826.00;0.21;107.63;0.00;0.00;0.62;;;;;12.60;1.00;;;;;;2265065;61;968;-87
2021/01/22 00:33:28;37143.00;0.12;64.95;0.00;0.00;0.62;;;;;12.50;1.00;;;;;;2272430;61;1297;-87
2021/01/22 00:35:54;0.00;0.00;0.62;0.00;0.00;0.62;;;;;12.50;1.00;;;;;;2262430;61;1002;-87
2021/01/22 00:38:21;36305.00;0.12;63.49;0.00;0.00;0.62;;;;;12.40;1.00;;;;;;2272432;61;939;-86
2021/01/22 00:40:47;9266.00;0.03;16.68;0.00;0.00;0.62;;;;;12.30;1.00;;;;;;2265785;61;1013;-88
2021/01/22 00:43:14;176720.00;0.59;305.84;0.00;0.00;0.62;;;;;12.30;1.00;;;;;;2265661;61;1907;-88
2021/01/22 00:45:41;152111.00;0.51;263.45;0.00;0.00;0.62;;;;;12.60;1.00;;;;;;2268972;61;1367;-88
2021/01/22 00:48:08;0.00;0.00;0.62;0.00;0.00;0.62;;;;;12.70;1.00;;;;;;2272402;61;1016;-87
2021/01/22 00:50:35;0.00;0.00;0.62;0.00;0.00;0.62;;;;;13.00;1.00;;;;;;2272875;61;994;-88
2021/01/22 00:53:02;0.00;0.00;0.62;0.00;0.00;0.62;;;;;12.70;1.00;;;;;;2265789;61;956;-89
2021/01/22 00:55:28;57861.00;0.19;100.78;0.00;0.00;0.62;;;;;12.60;1.00;;;;;;2268932;61;1358;-89
2021/01/22 00:57:55;3774.00;0.01;7.16;0.00;0.00;0.62;;;;;12.70;1.00;;;;;;2269091;61;969;-87
2021/01/22 01:00:22;23768.00;0.08;41.79;0.00;0.00;0.62;;;;;12.80;1.00;;;;;;2269063;61;973;-87
2021/01/22 01:02:49;71243.00;0.24;123.91;0.00;0.00;0.62;;;;;12.70;1.00;;;;;;2272912;61;975;-88
2021/01/22 01:05:16;40231.00;0.13;70.29;0.00;0.00;0.62;;;;;12.60;1.00;;;;;;2272705;61;1991;-87
2021/01/22 01:07:42;42262.00;0.14;73.80;0.00;0.00;0.62;;;;;12.70;1.00;;;;;;2269036;61;1020;-87
2021/01/22 01:10:10;24879.00;0.08;43.72;0.00;0.00;0.62;;;;;12.40;1.00;;;;;;2269091;61;1027;-89
2021/01/22 01:12:36;0.00;0.00;0.62;0.00;0.00;0.62;;;;;12.50;1.00;;;;;;2269014;61;983;-87
2021/01/22 01:15:05;0.00;0.00;0.62;0.00;0.00;0.62;;;;;12.50;1.00;;;;;;2268235;61;1305;-88
2021/01/22 01:17:31;6254.00;0.02;11.46;0.00;0.00;0.62;;;;;12.60;1.00;;;;;;2258327;61;952;-89
2021/01/22 01:19:59;98496.00;0.33;170.98;0.00;0.00;0.62;;;;;12.50;1.00;;;;;;2268375;61;993;-87
2021/01/22 01:22:25;107126.00;0.36;185.87;0.00;0.00;0.62;;;;;12.50;1.00;;;;;;2261436;61;996;-89
2021/01/22 01:24:52;666.00;0.00;1.77;0.00;0.00;0.62;;;;;12.40;1.00;;;;;;2260068;61;1923;-86
2021/01/22 01:27:18;13635.00;0.05;24.25;0.00;0.00;0.62;;;;;12.40;1.00;;;;;;2252001;61;998;-86
2021/01/22 01:29:45;9135.00;0.03;16.45;0.00;0.00;0.62;;;;;12.40;1.00;;;;;;2252175;61;965;-88
2021/01/22 01:32:11;0.00;0.00;0.62;0.00;0.00;0.62;;;;;12.50;1.00;;;;;;2249349;61;1025;-88
2021/01/22 01:34:38;0.00;0.00;0.62;0.00;0.00;0.62;;;;;12.50;1.00;;;;;;2249318;61;1282;-88
2021/01/22 01:37:05;5733.00;0.02;10.56;0.00;0.00;0.62;;;;;12.50;1.00;;;;;;2252856;61;991;-87
2021/01/22 01:39:32;0.00;0.00;0.62;0.00;0.00;0.62;;;;;12.50;1.00;;;;;;2249489;61;986;-87
2021/01/22 01:41:58;140031.00;0.47;242.62;8285.00;0.03;14.98;;;;;12.50;1.00;;;;;;2250376;61;1041;-88
2021/01/22 01:44:25;23545.00;0.08;41.41;0.00;0.00;0.62;;;;;12.60;1.00;;;;;;2261567;61;1998;-88
2021/01/22 01:46:51;45182.00;0.15;78.85;0.00;0.00;0.62;;;;;12.80;1.00;;;;;;2265648;61;949;-87
2021/01/22 01:49:18;0.00;0.00;0.62;0.00;0.00;0.62;;;;;12.60;1.00;;;;;;2268109;61;998;-89
2021/01/22 01:51:45;31541.00;0.11;55.25;0.00;0.00;0.62;;;;;12.40;1.00;;;;;;2268032;61;1028;-88
2021/01/22 01:54:13;36623.00;0.12;64.05;0.00;0.00;0.62;;;;;12.30;1.00;;;;;;2267959;61;1243;-88
2021/01/22 01:56:40;0.00;0.00;0.62;0.00;0.00;0.62;;;;;12.40;1.00;;;;;;2268028;61;1097;-86
2021/01/22 01:59:06;0.00;0.00;0.62;0.00;0.00;0.62;;;;;12.30;1.00;;;;;;2268147;61;986;-88
2021/01/22 02:01:36;205225.00;0.68;354.92;70045.00;0.23;121.84;;;;;12.00;1.00;;;;;;2264680;61;969;-88
2021/01/22 02:04:03;6978.00;0.02;12.71;0.00;0.00;0.62;;;;;12.10;1.00;;;;;;2261362;61;1986;-89
2021/01/22 02:06:30;0.00;0.00;0.62;0.00;0.00;0.62;;;;;12.40;1.00;;;;;;2268776;61;947;-87
2021/01/22 02:08:57;118804.00;0.40;206.02;0.00;0.00;0.62;;;;;12.40;1.00;;;;;;2268840;61;1002;-87
2021/01/22 02:11:27;38658.00;0.13;67.57;0.00;0.00;0.62;;;;;12.50;1.00;;;;;;2268816;61;1010;-87
2021/01/22 02:13:55;204565.00;0.68;353.78;0.00;0.00;0.62;;;;;12.60;1.00;;;;;;2265480;61;1343;-88
2021/01/22 02:16:23;79471.00;0.26;138.12;0.00;0.00;0.62;;;;;12.40;1.00;;;;;;2268846;61;1006;-87
2021/01/22 02:18:53;7772.00;0.03;14.09;0.00;0.00;0.62;;;;;12.50;1.00;;;;;;2268809;61;969;-87
2021/01/22 02:21:26;0.00;0.00;0.62;0.00;0.00;0.62;;;;;12.30;1.00;;;;;;2268821;61;1011;-88
2021/01/22 02:23:57;11557.00;0.04;20.65;0.00;0.00;0.62;;;;;12.30;1.00;;;;;;2268731;61;1990;-88
2021/01/22 02:26:46;118639.00;0.40;205.73;0.00;0.00;0.62;;;;;12.50;1.00;;;;;;2265488;61;1016;-87
2021/01/22 02:29:15;75375.00;0.25;131.05;0.00;0.00;0.62;;;;;12.60;1.00;;;;;;2272547;61;926;-88
2021/01/22 02:31:44;6366.00;0.02;11.65;0.00;0.00;0.62;;;;;12.70;1.00;;;;;;2268658;61;1025;-87
2021/01/22 02:34:15;120035344.00;400.12;70061936.00;119867192.00;399.56;69767632.00;;;;;12.70;1.00;;;;;;2268783;61;1424;-86
2021/01/22 02:36:45;372621.00;1.24;642.74;112891.00;0.38;195.82;;;;;12.40;1.00;;;;;;2265477;61;990;-88
2021/01/22 02:39:15;446107.00;1.49;769.09;126360.00;0.42;219.05;;;;;12.30;1.00;;;;;;2265442;61;1013;-87
2021/01/22 02:41:45;227183.00;0.76;392.70;80786.00;0.27;140.39;;;;;12.30;1.00;;;;;;2265480;61;943;-88
2021/01/22 02:44:12;226463.00;0.75;391.46;77396.00;0.26;134.54;;;;;12.40;1.00;;;;;;2265377;61;2009;-86
2021/01/22 02:46:40;328426.00;1.09;566.78;85417.00;0.28;148.39;;;;;12.30;1.00;;;;;;2272549;61;968;-88
2021/01/22 02:49:06;211272.00;0.70;365.32;75755.00;0.25;131.70;;;;;12.40;1.00;;;;;;2267902;61;1008;-88
2021/01/22 02:51:33;162654.00;0.54;281.61;78860.00;0.26;137.07;;;;;12.50;1.00;;;;;;2264580;61;996;-88
2021/01/22 02:53:59;175129.00;0.58;303.10;82773.00;0.28;143.83;;;;;12.20;1.00;;;;;;2267949;61;1436;-87
2021/01/22 02:56:42;172130.00;0.57;297.94;85120.00;0.28;147.88;;;;;12.20;1.00;;;;;;2264546;61;1017;-87
2021/01/22 02:59:20;281879.00;0.94;486.77;81799.00;0.27;142.14;;;;;12.40;1.00;;;;;;2261250;61;1009;-88
2021/01/22 03:01:56;387220.00;1.29;667.84;82404.00;0.27;143.19;;;;;12.40;1.00;;;;;;2267985;61;938;-88
2021/01/22 03:04:27;422409.00;1.41;728.33;108601.00;0.36;188.42;;;;;12.50;1.00;;;;;;2264477;61;2006;-88
2021/01/22 03:06:56;326286.00;1.09;563.10;83786.00;0.28;145.58;;;;;12.40;1.00;;;;;;2270431;61;949;-88
2021/01/22 03:09:26;339992.00;1.13;586.66;82067.00;0.27;142.61;;;;;12.40;1.00;;;;;;2269413;61;1023;-89
2021/01/22 03:11:54;551385.00;1.84;950.35;95478.00;0.32;165.77;;;;;12.40;1.00;;;;;;2268605;61;974;-88
2021/01/22 03:14:23;383889.00;1.28;662.11;74304.00;0.25;129.20;;;;;12.30;1.00;;;;;;2261943;61;1418;-88
2021/01/22 03:16:51;394879.00;1.32;681.00;80926.00;0.27;140.64;;;;;12.40;1.00;;;;;;2268536;61;1019;-89
2021/01/22 03:19:18;430795.00;1.44;742.75;76086.00;0.25;132.28;;;;;12.20;1.00;;;;;;2265246;61;950;-88
2021/01/22 03:21:44;296411.00;0.99;511.75;79808.00;0.27;138.71;;;;;12.00;1.00;;;;;;2261984;61;932;-87
2021/01/22 03:24:12;247572.00;0.83;427.78;83086.00;0.28;144.37;;;;;11.90;1.00;;;;;;2261887;61;1984;-87
2021/01/22 03:26:38;297916.00;0.99;514.34;81633.00;0.27;141.86;;;;;12.20;1.00;;;;;;2260479;61;990;-88
2021/01/22 03:29:05;337927.00;1.13;583.11;84443.00;0.28;146.71;;;;;12.00;1.00;;;;;;2261119;61;1013;-87
2021/01/22 03:31:32;338325.00;1.13;583.79;83205.00;0.28;144.57;;;;;12.00;1.00;;;;;;2261195;61;1012;-86
2021/01/22 03:33:59;403071.00;1.34;695.08;82615.00;0.28;143.55;;;;;12.10;1.00;;;;;;2261173;61;1443;-87
2021/01/22 03:36:25;313522.00;1.05;541.16;80125.00;0.27;139.25;;;;;11.90;1.00;;;;;;2257927;61;1005;-87
2021/01/22 03:38:52;296948.00;0.99;512.67;79203.00;0.26;137.66;;;;;11.90;1.00;;;;;;2254570;61;1041;-87
2021/01/22 03:41:18;357950.00;1.19;617.53;83169.00;0.28;144.51;;;;;12.10;1.00;;;;;;2257953;61;1002;-88
2021/01/22 03:43:45;306426.00;1.02;528.97;88411.00;0.29;153.56;;;;;12.10;1.00;;;;;;2261138;61;1914;-88
2021/01/22 03:46:13;257146.00;0.86;444.24;73774.00;0.25;128.28;;;;;12.20;1.00;;;;;;2254495;61;951;-88
2021/01/22 03:48:40;252652.00;0.84;436.51;80390.00;0.27;139.71;;;;;12.30;1.00;;;;;;2254558;61;989;-88
2021/01/22 03:51:07;434918.00;1.45;749.84;123772.00;0.41;214.59;;;;;12.60;1.00;;;;;;2268930;61;1040;-88
2021/01/22 03:53:33;406291.00;1.35;700.62;72017.00;0.24;125.25;;;;;12.60;1.00;;;;;;2273049;61;1443;-87
2021/01/22 03:56:00;269090.00;0.90;464.78;81794.00;0.27;142.14;;;;;12.30;1.00;;;;;;2269278;61;967;-89
2021/01/22 03:58:26;253977.00;0.85;438.79;85088.00;0.28;147.83;;;;;12.40;1.00;;;;;;2265970;61;954;-87
2021/01/22 04:00:53;327268.00;1.09;564.79;114121.00;0.38;197.94;;;;;12.50;1.00;;;;;;2269238;61;1031;-87
2021/01/22 04:03:19;364258.00;1.21;628.37;88829.00;0.30;154.29;;;;;12.50;1.00;;;;;;2265887;61;973;-90
2021/01/22 04:05:47;354188.00;1.18;611.06;83014.00;0.28;144.24;;;;;12.60;1.00;;;;;;2269162;61;1927;-89
2021/01/22 04:08:13;255215.00;0.85;440.92;81082.00;0.27;140.91;;;;;12.50;1.00;;;;;;2269239;61;993;-88
2021/01/22 04:10:40;208705.00;0.70;360.91;82635.00;0.28;143.59;;;;;12.40;1.00;;;;;;2265859;61;949;-87
2021/01/22 04:13:06;341923.00;1.14;589.98;78532.00;0.26;136.50;;;;;12.40;1.00;;;;;;2272529;61;985;-87
2021/01/22 04:15:33;245291.00;0.82;423.85;79756.00;0.27;138.62;;;;;12.00;1.00;;;;;;2269175;61;1396;-87
2021/01/22 04:17:59;191581.00;0.64;331.43;84144.00;0.28;146.19;;;;;12.20;1.00;;;;;;2268381;61;964;-88
2021/01/22 04:20:26;286933.00;0.96;495.46;108519.00;0.36;188.27;;;;;12.70;1.00;;;;;;2258500;61;1061;-88
2021/01/22 04:22:53;194776.00;0.65;336.93;83390.00;0.28;144.89;;;;;12.50;1.00;;;;;;2265095;61;998;-88
2021/01/22 04:25:20;217794.00;0.73;376.55;81725.00;0.27;142.02;;;;;12.10;1.00;;;;;;2260238;61;1924;-87
2021/01/22 04:27:47;485379.00;1.62;836.66;161047.00;0.54;278.84;;;;;12.20;1.00;;;;;;2253784;61;955;-87
2021/01/22 04:30:14;188791.00;0.63;326.63;86918.00;0.29;150.99;;;;;12.10;1.00;;;;;;2260407;61;1026;-87
2021/01/22 04:32:41;230788.00;0.77;398.90;94269.00;0.31;163.68;;;;;12.00;1.00;;;;;;2260392;61;1028;-89
2021/01/22 04:35:12;364347.00;1.21;628.52;84663.00;0.28;147.09;;;;;12.10;1.00;;;;;;2254221;61;1433;-88
2021/01/22 04:37:39;321783.00;1.07;555.36;84640.00;0.28;147.05;;;;;11.90;1.00;;;;;;2261046;61;1002;-86
2021/01/22 04:40:07;327725.00;1.09;565.58;89987.00;0.30;156.29;;;;;11.80;1.00;;;;;;2260937;61;943;-87
2021/01/22 04:42:34;305296.00;1.02;527.02;90435.00;0.30;157.06;;;;;11.90;1.00;;;;;;2265793;61;1031;-88
2021/01/22 04:45:01;301289.00;1.00;520.14;84915.00;0.28;147.53;;;;;11.70;1.00;;;;;;2269028;61;1994;-87
2021/01/22 04:47:28;561183.00;1.87;967.24;180594.00;0.60;312.51;;;;;11.70;1.00;;;;;;2272899;61;916;-89
2021/01/22 04:52:22;445002.00;1.48;767.19;118188.00;0.39;204.96;;;;;11.70;1.00;;;;;;2274467;61;1434;-88
2021/01/22 04:54:52;353903.00;1.18;610.57;85074.00;0.28;147.80;;;;;11.70;1.00;;;;;;2264152;61;1463;-88
2021/01/22 04:57:20;328770.00;1.10;567.37;85490.00;0.28;148.52;;;;;11.70;1.00;;;;;;2257652;61;1059;-86
2021/01/22 04:59:50;512343.00;1.71;883.08;118784.00;0.40;205.98;;;;;11.40;1.00;;;;;;2257635;61;941;-88
2021/01/22 05:02:17;293733.00;0.98;507.15;79452.00;0.26;138.09;;;;;11.50;1.00;;;;;;2264262;61;958;-88
2021/01/22 05:04:44;593060.00;1.98;1022.24;151973.00;0.51;263.21;;;;;11.80;1.00;;;;;;2264281;61;1924;-88
2021/01/22 05:07:11;321328.00;1.07;554.58;87005.00;0.29;151.14;;;;;11.90;1.00;;;;;;2254336;61;1025;-89
2021/01/22 05:09:39;280926.00;0.94;485.13;89087.00;0.30;154.73;;;;;11.90;1.00;;;;;;2264261;61;1022;-89
2021/01/22 05:12:07;321663.00;1.07;555.16;78937.00;0.26;137.20;;;;;11.70;1.00;;;;;;2255914;61;1014;-88
2021/01/22 05:14:35;290434.00;0.97;501.48;80556.00;0.27;140.00;;;;;11.80;1.00;;;;;;2265676;61;1455;-88
2021/01/22 05:17:04;323880.00;1.08;558.97;81023.00;0.27;140.80;;;;;11.90;1.00;;;;;;2265713;61;964;-87
2021/01/22 05:19:31;260126.00;0.87;449.37;89085.00;0.30;154.73;;;;;12.00;1.00;;;;;;2265677;61;1018;-89
2021/01/22 05:21:58;6513.00;0.02;11.91;0.00;0.00;0.62;;;;;12.20;1.00;;;;;;2268181;61;979;-87
2021/01/22 05:24:26;29427.00;0.10;51.59;0.00;0.00;0.62;;;;;12.30;1.00;;;;;;2258192;61;1924;-89
2021/01/22 05:27:00;47855.00;0.16;83.48;0.00;0.00;0.62;;;;;12.50;1.00;;;;;;2258365;61;983;-88
2021/01/22 05:29:27;180624.00;0.60;312.56;91195.00;0.30;158.37;;;;;12.20;1.00;;;;;;2264688;61;982;-87
2021/01/22 05:31:55;674709.00;2.25;1163.41;207633.00;0.69;359.06;;;;;12.00;1.00;;;;;;2258218;61;975;-87
2021/01/22 05:34:21;33582.00;0.11;58.78;0.00;0.00;0.62;;;;;11.90;1.00;;;;;;2268139;61;1377;-88
2021/01/22 05:36:49;108096.00;0.36;187.54;0.00;0.00;0.62;;;;;11.90;1.00;;;;;;2258193;61;1022;-88
2021/01/22 05:39:20;0.00;0.00;0.62;0.00;0.00;0.62;;;;;11.60;1.00;;;;;;2257648;61;1097;-90
2021/01/22 05:41:55;25805.00;0.09;45.32;0.00;0.00;0.62;;;;;11.50;1.00;;;;;;2264193;61;1017;-87
2021/01/22 05:44:25;47364.00;0.16;82.63;0.00;0.00;0.62;;;;;11.50;1.00;;;;;;2254211;61;2010;-87
2021/01/22 05:47:04;54260.00;0.18;94.55;0.00;0.00;0.62;;;;;11.40;1.00;;;;;;2256100;61;972;-87
2021/01/22 05:49:31;363154.00;1.21;626.47;80274.00;0.27;139.51;;;;;11.60;1.00;;;;;;2252804;61;953;-87
2021/01/22 05:51:59;259181.00;0.86;447.74;87114.00;0.29;151.32;;;;;11.70;1.00;;;;;;2252669;61;1037;-87
2021/01/22 05:54:33;244546.00;0.82;422.57;79186.00;0.26;137.63;;;;;11.60;1.00;;;;;;2252742;61;1336;-88
2021/01/22 05:57:00;327615.00;1.09;565.39;86369.00;0.29;150.04;;;;;11.70;1.00;;;;;;2255030;61;1038;-88
2021/01/22 05:59:26;183038.00;0.61;316.72;81013.00;0.27;140.79;;;;;11.50;1.00;;;;;;2259982;61;967;-89
2021/01/22 06:01:53;401775.00;1.34;692.86;162242.00;0.54;280.90;;;;;11.80;1.00;;;;;;2256695;61;921;-88
2021/01/22 06:04:20;189542.00;0.63;327.92;84204.00;0.28;146.30;;;;;11.80;1.00;;;;;;2258677;61;1990;-88
2021/01/22 06:06:47;404653.00;1.35;697.80;100230.00;0.33;173.97;;;;;11.90;1.00;;;;;;2268133;61;858;-87
2021/01/22 06:09:13;317862.00;1.06;548.62;65696.00;0.22;114.32;;;;;11.50;1.00;;;;;;2264770;61;1020;-89
2021/01/22 06:11:41;100333.00;0.33;174.15;0.00;0.00;0.62;;;;;11.40;1.00;;;;;;2258103;61;988;-89
2021/01/22 06:14:13;70872.00;0.24;123.27;0.00;0.00;0.62;;;;;11.60;1.00;;;;;;2261907;61;1295;-87
2021/01/22 06:16:44;15171.00;0.05;26.91;0.00;0.00;0.62;;;;;11.90;1.00;;;;;;2265539;61;981;-88
2021/01/22 06:19:15;38503.00;0.13;67.30;0.00;0.00;0.62;;;;;11.80;1.00;;;;;;2272606;61;1033;-87
2021/01/22 06:21:55;39692.00;0.13;69.36;0.00;0.00;0.62;;;;;11.60;1.00;;;;;;2264019;61;947;-87
2021/01/22 06:24:22;182168.00;0.61;315.22;91785.00;0.31;159.39;;;;;11.80;1.00;;;;;;2260562;61;2014;-87
2021/01/22 06:26:50;27205.00;0.09;47.74;0.00;0.00;0.62;;;;;11.90;1.00;;;;;;2257351;61;1000;-86
2021/01/22 06:29:21;86059.00;0.29;149.50;0.00;0.00;0.62;;;;;11.70;1.00;;;;;;2255877;61;1037;-87
2021/01/22 06:31:49;0.00;0.00;0.62;0.00;0.00;0.62;;;;;11.70;1.00;;;;;;2252553;61;1006;-87
2021/01/22 06:34:16;14062.00;0.05;24.99;0.00;0.00;0.62;;;;;11.90;1.00;;;;;;2255738;61;1357;-88
2021/01/22 06:36:46;266203.00;0.89;459.82;58364.00;0.19;101.65;;;;;11.80;1.00;;;;;;2256012;61;1052;-87
2021/01/22 06:39:13;0.00;0.00;0.62;0.00;0.00;0.62;;;;;11.70;1.00;;;;;;2259630;61;1020;-88
2021/01/22 06:41:39;135186.00;0.45;234.27;0.00;0.00;0.62;;;;;11.60;1.00;;;;;;2258833;61;980;-87
2021/01/22 06:44:07;27892.00;0.09;48.93;0.00;0.00;0.62;;;;;11.30;1.00;;;;;;2268667;61;1914;-89
2021/01/22 06:46:34;0.00;0.00;0.62;0.00;0.00;0.62;;;;;11.40;1.00;;;;;;2266226;61;966;-88
2021/01/22 06:49:02;0.00;0.00;0.62;0.00;0.00;0.62;;;;;11.40;1.00;;;;;;2273241;61;1022;-89
2021/01/22 06:51:30;9917.00;0.03;17.81;0.00;0.00;0.62;;;;;11.30;1.00;;;;;;2268660;61;932;-88
2021/01/22 06:54:09;3792.00;0.01;7.19;0.00;0.00;0.62;;;;;11.30;1.00;;;;;;2258738;61;1456;-89
2021/01/22 06:56:38;55154.00;0.18;96.10;0.00;0.00;0.62;;;;;11.50;1.00;;;;;;2268752;61;1035;-88
2021/01/22 06:59:35;27224.00;0.09;47.78;0.00;0.00;0.62;;;;;11.60;1.00;;;;;;2268771;61;1026;-88
2021/01/22 07:02:01;18816.00;0.06;33.22;0.00;0.00;0.62;;;;;11.50;1.00;;;;;;2258727;61;1011;-88
2021/01/22 07:04:40;77347.00;0.26;134.45;0.00;0.00;0.62;;;;;11.60;1.00;;;;;;2258709;61;1994;-87
2021/01/22 07:07:08;0.00;0.00;0.62;0.00;0.00;0.62;;;;;11.40;1.00;;;;;;2261944;61;993;-88
2021/01/22 07:09:54;47554.00;0.16;82.96;0.00;0.00;0.62;;;;;11.40;1.00;;;;;;2264178;61;994;-89
2021/01/22 07:12:41;101243.00;0.34;175.72;20651.00;0.07;36.40;;;;;11.50;1.00;;;;;;2269365;61;958;-90
2021/01/22 07:15:28;91871.00;0.31;159.54;22537.00;0.08;39.66;;;;;11.50;1.00;;;;;;2272730;61;1371;-87
2021/01/22 07:18:00;18984.00;0.06;33.51;0.00;0.00;0.62;;;;;11.60;1.00;;;;;;2266125;61;995;-87
2021/01/22 07:20:29;13153.00;0.04;23.41;0.00;0.00;0.62;;;;;11.50;1.00;;;;;;2273148;61;1144;-89
2021/01/22 07:22:57;0.00;0.00;0.62;0.00;0.00;0.62;;;;;11.60;1.00;;;;;;2264314;61;981;-88
2021/01/22 07:25:32;22786.00;0.08;40.09;0.00;0.00;0.62;;;;;11.50;1.00;;;;;;2264568;61;1996;-88
2021/01/22 07:28:05;30591.00;0.10;53.61;0.00;0.00;0.62;;;;;11.70;1.00;;;;;;2261164;61;999;-86
2021/01/22 07:30:38;30398.00;0.10;53.27;0.00;0.00;0.62;;;;;11.40;1.00;;;;;;2264498;61;1095;-88
2021/01/22 07:33:35;114837.00;0.38;199.18;29029.00;0.10;50.90;;;;;11.50;1.00;;;;;;2261128;61;997;-88
2021/01/22 07:36:10;256510.00;0.86;443.15;100571.00;0.34;174.56;;;;;11.70;1.00;;;;;;2261256;61;968;-88
2021/01/22 07:38:38;0.00;0.00;0.62;0.00;0.00;0.62;;;;;11.50;1.00;;;;;;2252461;61;970;-88
2021/01/22 07:41:07;0.00;0.00;0.62;0.00;0.00;0.62;;;;;11.50;1.00;;;;;;2257082;61;1040;-88
2021/01/22 07:43:33;9785.00;0.03;17.58;0.00;0.00;0.62;;;;;11.70;1.00;;;;;;2263685;61;1361;-88
2021/01/22 07:46:07;0.00;0.00;0.62;0.00;0.00;0.62;;;;;11.80;1.00;;;;;;2260477;61;1995;-88
2021/01/22 07:48:34;121661.00;0.41;210.95;41213.00;0.14;71.99;;;;;11.70;1.00;;;;;;2260526;61;1016;-87
2021/01/22 07:51:21;9057.00;0.03;16.32;0.00;0.00;0.62;;;;;11.90;1.00;;;;;;2260096;61;1090;-88
2021/01/22 07:53:56;274540.00;0.92;474.15;81025.00;0.27;140.81;;;;;12.00;1.00;;;;;;2256307;61;1378;-88
2021/01/22 07:56:24;594686.00;1.98;1025.05;78786.00;0.26;136.94;;;;;11.80;1.00;;;;;;2259514;61;1022;-88
2021/01/22 07:58:50;539003.00;1.80;929.01;92916.00;0.31;161.34;;;;;11.60;1.00;;;;;;2261139;61;990;-88
2021/01/22 08:01:23;372176.00;1.24;641.98;80703.00;0.27;140.25;;;;;11.70;1.00;;;;;;2264026;61;989;-87
2021/01/22 08:03:50;305159.00;1.02;526.79;0.00;0.00;0.62;;;;;11.60;1.00;;;;;;2264476;61;1369;-89
2021/01/22 08:06:16;272552.00;0.91;470.73;0.00;0.00;0.62;;;;;11.70;1.00;;;;;;2257808;61;1939;-88
2021/01/22 08:08:43;263700.00;0.88;455.51;0.00;0.00;0.62;;;;;11.80;1.00;;;;;;2256294;61;1041;-88
2021/01/22 08:11:18;453691.00;1.51;782.13;83349.00;0.28;144.82;;;;;11.90;1.00;;;;;;2258207;61;1013;-87
2021/01/22 08:13:46;379956.00;1.27;655.35;89983.00;0.30;156.28;;;;;12.10;1.00;;;;;;2260987;61;1317;-90
2021/01/22 08:16:20;540112.00;1.80;930.92;77429.00;0.26;134.60;;;;;12.10;1.00;;;;;;2257794;61;933;-88
2021/01/22 08:18:47;271040.00;0.90;468.13;0.00;0.00;0.62;;;;;12.40;1.00;;;;;;2264414;61;946;-87
2021/01/22 08:21:14;179856.00;0.60;311.24;0.00;0.00;0.62;;;;;12.50;1.00;;;;;;2261036;61;1004;-89
2021/01/22 08:23:42;221893.00;0.74;383.60;0.00;0.00;0.62;;;;;12.70;1.00;;;;;;2257481;61;1400;-88
2021/01/22 08:26:11;285330.00;0.95;492.70;0.00;0.00;0.62;;;;;12.70;1.00;;;;;;2259785;61;2021;-89
2021/01/22 08:28:38;271986.00;0.91;469.76;0.00;0.00;0.62;;;;;12.70;1.00;;;;;;2265802;61;1021;-89
2021/01/22 08:31:07;531075.00;1.77;915.34;0.00;0.00;0.62;;;;;12.80;1.00;;;;;;2268210;61;1031;-87
2021/01/22 08:33:35;139700.00;0.47;242.05;0.00;0.00;0.62;;;;;13.00;1.00;;;;;;2268397;61;1432;-88
2021/01/22 08:36:03;277117.00;0.92;478.58;57893.00;0.19;100.83;;;;;12.90;1.00;;;;;;2258392;61;951;-88
2021/01/22 08:38:30;205509.00;0.69;355.41;0.00;0.00;0.62;;;;;12.80;1.00;;;;;;2258270;61;1124;-88
2021/01/22 08:40:56;409236.00;1.36;705.68;0.00;0.00;0.62;;;;;12.80;1.00;;;;;;2258451;61;950;-89
2021/01/22 08:43:24;160266.00;0.53;277.50;0.00;0.00;0.62;;;;;12.60;1.00;;;;;;2258278;61;1396;-87
2021/01/22 08:46:10;443909.00;1.48;765.31;85165.00;0.28;147.96;;;;;13.10;1.00;;;;;;2264095;61;1996;-89
2021/01/22 08:48:38;89540.00;0.30;155.51;0.00;0.00;0.62;;;;;13.20;1.00;;;;;;2262033;61;950;-88
2021/01/22 08:51:06;193016.00;0.64;333.90;0.00;0.00;0.62;;;;;13.20;1.00;;;;;;2264942;61;934;-86
2021/01/22 08:53:33;156928.00;0.52;271.75;0.00;0.00;0.62;;;;;13.00;1.00;;;;;;2264159;61;1439;-87
2021/01/22 08:56:10;119268.00;0.40;206.82;0.00;0.00;0.62;;;;;12.90;1.00;;;;;;2256167;61;1005;-88
2021/01/22 08:58:56;15960.00;0.05;28.27;0.00;0.00;0.62;;;;;12.90;1.00;;;;;;2249638;61;977;-88
2021/01/22 09:01:23;13490.00;0.04;24.00;0.00;0.00;0.62;;;;;12.80;1.00;;;;;;2246430;61;1010;-88
2021/01/22 09:03:50;0.00;0.00;0.62;0.00;0.00;0.62;;;;;12.90;1.00;;;;;;2246020;61;1358;-87
2021/01/22 09:06:16;305299.00;1.02;527.03;83226.00;0.28;144.61;;;;;12.80;1.00;;;;;;2249580;61;2014;-88
2021/01/22 09:08:54;341741.00;1.14;589.67;82635.00;0.28;143.59;;;;;12.80;1.00;;;;;;2252782;61;926;-87
2021/01/22 09:11:37;366954.00;1.22;633.00;85543.00;0.29;148.61;;;;;12.70;1.00;;;;;;2259352;61;1030;-87
2021/01/22 09:14:03;410053.00;1.37;707.09;87447.00;0.29;151.90;;;;;12.70;1.00;;;;;;2245519;61;1280;-87
2021/01/22 09:16:31;408890.00;1.36;705.09;88588.00;0.30;153.87;;;;;12.80;1.00;;;;;;2248902;61;1062;-87
2021/01/22 09:19:01;171712.00;0.57;297.22;84218.00;0.28;146.32;;;;;12.80;1.00;;;;;;2242458;61;1007;-89
2021/01/22 09:21:27;233316.00;0.78;403.25;84923.00;0.28;147.54;;;;;13.10;1.00;;;;;;2249744;61;1006;-88
2021/01/22 09:23:54;0.00;0.00;0.62;0.00;0.00;0.62;;;;;13.40;1.00;;;;;;2256862;61;1499;-88
2021/01/22 09:26:20;427540.00;1.43;737.16;103285.00;0.34;179.24;;;;;13.60;1.00;;;;;;2250315;61;2012;-89
2021/01/22 09:28:48;0.00;0.00;0.62;0.00;0.00;0.62;;;;;13.60;1.00;;;;;;2256887;61;947;-89
2021/01/22 09:31:14;9756.00;0.03;17.53;0.00;0.00;0.62;;;;;13.50;1.00;;;;;;2253528;61;1014;-88
2021/01/22 09:33:41;35677.00;0.12;62.41;0.00;0.00;0.62;;;;;13.40;1.00;;;;;;2253551;61;1432;-88
2021/01/22 09:36:09;66667.00;0.22;116.00;0.00;0.00;0.62;;;;;13.60;1.00;;;;;;2260192;61;935;-89
2021/01/22 09:38:36;0.00;0.00;0.62;0.00;0.00;0.62;;;;;13.80;1.00;;;;;;2260199;61;1112;-88
2021/01/22 09:41:03;55273.00;0.18;96.30;0.00;0.00;0.62;;;;;13.70;1.00;;;;;;2256849;61;957;-89
2021/01/22 09:43:29;743.00;0.00;1.91;0.00;0.00;0.62;;;;;13.50;1.00;;;;;;2256806;61;1347;-88
2021/01/22 09:45:57;26548.00;0.09;46.61;0.00;0.00;0.62;;;;;13.60;1.00;;;;;;2260199;61;1915;-87
2021/01/22 09:48:25;118353.00;0.39;205.24;51281.00;0.17;89.40;;;;;13.60;1.00;;;;;;2260154;61;1090;-88
2021/01/22 09:50:52;49278.00;0.16;85.94;0.00;0.00;0.62;;;;;13.90;1.00;;;;;;2265184;61;1052;-88
2021/01/22 09:53:19;29648.00;0.10;51.97;0.00;0.00;0.62;;;;;14.10;1.00;;;;;;2272667;61;1043;-89
2021/01/22 09:55:45;87288.00;0.29;151.62;0.00;0.00;0.62;;;;;14.00;1.00;;;;;;2268925;61;1322;-89
2021/01/22 09:58:12;0.00;0.00;0.62;0.00;0.00;0.62;;;;;13.90;1.00;;;;;;2272753;61;1056;-88
2021/01/22 10:00:38;57583.00;0.19;100.30;0.00;0.00;0.62;;;;;13.90;1.00;;;;;;2265637;61;1069;-89
2021/01/22 10:03:05;0.00;0.00;0.62;0.00;0.00;0.62;;;;;13.80;1.00;;;;;;2269014;61;994;-89
2021/01/22 10:05:31;0.00;0.00;0.62;0.00;0.00;0.62;;;;;14.00;1.00;;;;;;2265658;61;1912;-88